Time;durP1;ratioP1;P1;durP2;ratioP2;P2;SDS_P1;SDS_P2;PMS_P1;PMS_P2;Temp;Humidity;BMP_temperature;BMP_pressure;BME280_temperature;BME280_humidity;BME280_pressure;Samples;Min_cycle;Max_cycle;Signal;HPM_P1;HPM_P2
2021/11/25 00:01:50;;;;;;;58.60;37.72;;;5.80;99.90;;;;;;5010868;28;20085;-59
2021/11/25 00:04:19;;;;;;;55.92;38.35;;;5.80;99.90;;;;;;4997871;28;20547;-57
2021/11/25 00:06:46;;;;;;;61.72;39.50;;;5.90;99.90;;;;;;5034261;28;20049;-57
2021/11/25 00:09:12;;;;;;;59.70;38.45;;;5.80;99.90;;;;;;5016816;28;20404;-57
2021/11/25 00:11:38;;;;;;;60.28;38.75;;;5.80;99.90;;;;;;4977967;28;20053;-58
2021/11/25 00:14:04;;;;;;;64.65;39.75;;;5.80;99.90;;;;;;5022386;28;20080;-57
2021/11/25 00:16:31;;;;;;;56.20;36.25;;;5.80;99.90;;;;;;5013383;28;20045;-58
2021/11/25 00:18:57;;;;;;;61.80;38.97;;;5.80;99.90;;;;;;5013479;28;20472;-58
2021/11/25 00:21:23;;;;;;;59.42;38.47;;;5.80;99.90;;;;;;5030885;28;20103;-58
2021/11/25 00:23:50;;;;;;;66.65;40.00;;;5.80;99.90;;;;;;5013004;28;20102;-58
2021/11/25 00:26:17;;;;;;;58.70;38.80;;;5.80;99.90;;;;;;5030382;28;20049;-62
2021/11/25 00:28:44;;;;;;;70.32;41.13;;;5.80;99.90;;;;;;4996718;28;20053;-62
2021/11/25 00:31:10;;;;;;;71.70;42.80;;;5.80;99.90;;;;;;5029972;28;20049;-62
2021/11/25 00:33:36;;;;;;;71.72;42.70;;;5.80;99.90;;;;;;5013615;28;20052;-62
2021/11/25 00:36:03;;;;;;;68.97;41.97;;;5.80;99.90;;;;;;5029240;28;20562;-62
2021/11/25 00:38:29;;;;;;;63.50;40.15;;;5.80;99.90;;;;;;5015902;28;20129;-62
2021/11/25 00:40:56;;;;;;;73.50;44.10;;;5.80;99.90;;;;;;4999158;28;20114;-62
2021/11/25 00:43:22;;;;;;;68.95;42.33;;;5.80;99.90;;;;;;5012270;28;20114;-62
2021/11/25 00:45:49;;;;;;;67.75;42.22;;;5.80;99.90;;;;;;5001779;28;20139;-58
2021/11/25 00:48:15;;;;;;;75.05;45.70;;;5.80;99.90;;;;;;4981546;28;20061;-58
2021/11/25 00:50:42;;;;;;;68.00;42.55;;;5.80;99.90;;;;;;5011885;28;20090;-57
2021/11/25 00:53:09;;;;;;;74.70;45.33;;;5.80;99.90;;;;;;5012333;28;20120;-58
2021/11/25 00:55:38;;;;;;;73.45;43.90;;;5.80;99.90;;;;;;5012347;28;20492;-57
2021/11/25 00:58:05;;;;;;;70.18;42.92;;;5.80;99.90;;;;;;5014875;28;20052;-63
2021/11/25 01:00:31;;;;;;;70.68;44.05;;;5.80;99.90;;;;;;5012607;28;20056;-59
2021/11/25 01:02:57;;;;;;;66.97;42.90;;;5.80;99.90;;;;;;5030180;28;20073;-61
2021/11/25 01:05:24;;;;;;;71.78;42.22;;;5.80;99.90;;;;;;5029525;28;20053;-62
2021/11/25 01:07:50;;;;;;;67.60;42.60;;;5.80;99.90;;;;;;4979667;28;20050;-62
2021/11/25 01:10:21;;;;;;;70.15;42.35;;;5.80;99.90;;;;;;5012746;28;20059;-63
2021/11/25 01:12:48;;;;;;;71.97;42.90;;;5.80;99.90;;;;;;5030334;28;20512;-62
2021/11/25 01:15:16;;;;;;;81.95;46.33;;;5.80;99.90;;;;;;5013791;28;20049;-63
2021/11/25 01:17:44;;;;;;;74.35;42.28;;;5.80;99.90;;;;;;5013164;28;20053;-63
2021/11/25 01:20:14;;;;;;;78.97;45.03;;;5.80;99.90;;;;;;5029565;28;20053;-62
2021/11/25 01:22:40;;;;;;;82.07;45.75;;;5.80;99.90;;;;;;5012008;28;20124;-62
2021/11/25 01:25:08;;;;;;;84.40;46.95;;;5.80;99.90;;;;;;4993506;28;20807;-62
2021/11/25 01:27:34;;;;;;;70.18;41.88;;;5.80;99.90;;;;;;4996188;28;20140;-62
2021/11/25 01:30:00;;;;;;;79.63;46.47;;;5.80;99.90;;;;;;5028287;28;20099;-62
2021/11/25 01:32:27;;;;;;;78.30;45.85;;;5.80;99.90;;;;;;5011038;28;20575;-63
2021/11/25 01:34:55;;;;;;;83.07;47.55;;;5.80;99.90;;;;;;5012325;28;20123;-63
2021/11/25 01:37:23;;;;;;;82.00;46.03;;;5.80;99.90;;;;;;4994902;28;20056;-58
2021/11/25 01:39:49;;;;;;;85.75;47.40;;;5.80;99.90;;;;;;5029441;28;20045;-58
2021/11/25 01:42:15;;;;;;;76.78;45.58;;;5.80;99.90;;;;;;5028770;28;20127;-59
2021/11/25 01:44:42;;;;;;;75.50;44.25;;;5.80;99.90;;;;;;5015036;28;20075;-58
2021/11/25 01:47:08;;;;;;;77.38;43.58;;;5.80;99.90;;;;;;5012364;28;20049;-63
2021/11/25 01:49:34;;;;;;;73.70;43.88;;;5.80;99.90;;;;;;5012008;28;20045;-63
2021/11/25 01:52:00;;;;;;;81.47;46.13;;;5.80;99.90;;;;;;5030120;28;20064;-63
2021/11/25 01:54:26;;;;;;;74.22;43.28;;;5.80;99.90;;;;;;5013063;28;20041;-63
2021/11/25 01:56:57;;;;;;;77.75;42.92;;;5.80;99.90;;;;;;5029037;28;20083;-64
2021/11/25 01:59:24;;;;;;;83.30;46.28;;;5.80;99.90;;;;;;5029972;28;20065;-63
2021/11/25 02:01:51;;;;;;;80.68;45.80;;;5.70;99.90;;;;;;4978730;28;20096;-63
2021/11/25 02:04:17;;;;;;;83.05;45.58;;;5.70;99.90;;;;;;5012115;28;20049;-59
2021/11/25 02:06:43;;;;;;;75.68;45.13;;;5.80;99.90;;;;;;5014332;28;20408;-58
2021/11/25 02:09:10;;;;;;;79.85;44.55;;;5.80;99.90;;;;;;5010956;28;20046;-63
2021/11/25 02:11:39;;;;;;;78.25;44.58;;;5.80;99.90;;;;;;5028745;28;20053;-64
2021/11/25 02:14:05;;;;;;;81.15;45.63;;;5.80;99.90;;;;;;5013901;28;20052;-64
2021/11/25 02:16:31;;;;;;;80.20;43.90;;;5.80;99.90;;;;;;5029240;28;20080;-62
2021/11/25 02:18:58;;;;;;;77.25;42.80;;;5.80;99.90;;;;;;5010696;28;20046;-63
2021/11/25 02:21:27;;;;;;;84.45;46.40;;;5.80;99.90;;;;;;4997427;28;20127;-58
2021/11/25 02:23:53;;;;;;;81.80;43.53;;;5.80;99.90;;;;;;5021916;28;20121;-63
2021/11/25 02:26:19;;;;;;;82.00;43.80;;;5.80;99.90;;;;;;5033064;28;20057;-58
2021/11/25 02:28:45;;;;;;;79.32;44.33;;;5.80;99.90;;;;;;5032828;28;20057;-62
2021/11/25 02:31:12;;;;;;;80.97;43.60;;;5.80;99.90;;;;;;5033080;28;20103;-62
2021/11/25 02:33:40;;;;;;;83.35;45.40;;;5.80;99.90;;;;;;5032585;28;20049;-59
2021/11/25 02:36:07;;;;;;;79.75;43.70;;;5.80;99.90;;;;;;4982476;28;20053;-58
2021/11/25 02:38:33;;;;;;;87.30;44.63;;;5.80;99.90;;;;;;4999861;28;20511;-58
2021/11/25 02:41:00;;;;;;;82.80;42.83;;;5.80;99.90;;;;;;5015288;28;20045;-58
2021/11/25 02:43:28;;;;;;;88.47;45.15;;;5.80;99.90;;;;;;5001252;28;20068;-58
2021/11/25 02:46:04;;;;;;;87.18;46.92;;;5.80;99.90;;;;;;5033318;28;20534;-57
2021/11/25 02:48:42;;;;;;;88.13;45.17;;;5.80;99.90;;;;;;5017512;28;20041;-58
2021/11/25 02:51:11;;;;;;;87.65;46.90;;;5.80;99.90;;;;;;5032142;28;20084;-58
2021/11/25 02:53:38;;;;;;;90.32;46.28;;;5.80;99.90;;;;;;5032100;28;20057;-58
2021/11/25 02:56:13;;;;;;;96.40;47.60;;;5.80;99.90;;;;;;5013901;28;20053;-57
2021/11/25 02:58:41;;;;;;;89.50;46.95;;;5.80;99.90;;;;;;4997634;28;20050;-57
2021/11/25 03:01:11;;;;;;;84.20;46.53;;;5.80;99.90;;;;;;5035445;28;20045;-62
2021/11/25 03:03:37;;;;;;;86.47;45.63;;;5.80;99.90;;;;;;5035688;28;20048;-63
2021/11/25 03:06:03;;;;;;;87.90;45.20;;;5.80;99.90;;;;;;5032364;28;20049;-63
2021/11/25 03:08:29;;;;;;;92.55;47.15;;;5.80;99.90;;;;;;4995258;28;20046;-62
2021/11/25 03:11:08;;;;;;;97.45;47.97;;;5.80;99.90;;;;;;4978890;28;20041;-62
2021/11/25 03:13:38;;;;;;;87.45;47.13;;;5.80;99.90;;;;;;4995102;28;20073;-57
2021/11/25 03:16:05;;;;;;;89.68;47.13;;;5.80;99.90;;;;;;5012566;28;20099;-62
2021/11/25 03:18:32;;;;;;;85.53;45.58;;;5.80;99.90;;;;;;4989588;28;20049;-62
2021/11/25 03:20:58;;;;;;;82.78;44.83;;;5.80;99.90;;;;;;5014575;28;20080;-57
2021/11/25 03:23:28;;;;;;;83.70;46.75;;;5.80;99.90;;;;;;5014294;28;20061;-57
2021/11/25 03:25:55;;;;;;;85.63;45.03;;;5.80;99.90;;;;;;5030785;28;20064;-57
2021/11/25 03:28:22;;;;;;;87.88;46.30;;;5.80;99.90;;;;;;4998291;28;20048;-57
2021/11/25 03:30:54;;;;;;;83.78;47.63;;;5.80;99.90;;;;;;5031077;28;20481;-57
2021/11/25 03:33:31;;;;;;;89.50;47.20;;;5.80;99.90;;;;;;5012882;28;20124;-57
2021/11/25 03:35:59;;;;;;;86.28;46.35;;;5.80;99.90;;;;;;5012575;28;20045;-56
2021/11/25 03:38:25;;;;;;;95.75;48.67;;;5.90;99.90;;;;;;5016334;28;20053;-57
2021/11/25 03:40:53;;;;;;;96.75;47.50;;;5.80;99.90;;;;;;4980401;28;20064;-55
2021/11/25 03:43:20;;;;;;;90.20;47.15;;;5.80;99.90;;;;;;4997971;28;20068;-55
2021/11/25 03:45:46;;;;;;;97.75;45.63;;;5.80;99.90;;;;;;5033335;28;20067;-56
2021/11/25 03:48:15;;;;;;;87.47;46.63;;;5.80;99.90;;;;;;5014264;28;20098;-56
2021/11/25 03:50:41;;;;;;;101.70;47.60;;;5.80;99.90;;;;;;5031133;28;20049;-57
2021/11/25 03:53:08;;;;;;;95.10;47.85;;;5.80;99.90;;;;;;5031193;28;20575;-56
2021/11/25 03:55:36;;;;;;;95.40;50.38;;;5.70;99.90;;;;;;4981305;28;20570;-61
2021/11/25 03:58:03;;;;;;;95.40;47.30;;;5.70;99.90;;;;;;5030337;28;20059;-61
2021/11/25 04:00:31;;;;;;;98.28;48.65;;;5.70;99.90;;;;;;5031415;28;20041;-61
2021/11/25 04:02:59;;;;;;;92.68;47.95;;;5.60;99.90;;;;;;5030878;28;20049;-55
2021/11/25 04:05:26;;;;;;;103.25;49.20;;;5.70;99.90;;;;;;4996651;28;20091;-62
2021/11/25 04:07:52;;;;;;;106.65;49.70;;;5.60;99.90;;;;;;5012463;28;20053;-62
2021/11/25 04:10:18;;;;;;;99.68;49.85;;;5.60;99.90;;;;;;4998974;28;20048;-61
2021/11/25 04:12:45;;;;;;;99.15;48.67;;;5.60;99.90;;;;;;5013052;28;20049;-56
2021/11/25 04:15:13;;;;;;;98.63;51.25;;;5.60;99.90;;;;;;4997308;28;20049;-56
2021/11/25 04:17:39;;;;;;;101.70;49.15;;;5.60;99.90;;;;;;5029929;28;20045;-56
2021/11/25 04:20:07;;;;;;;107.80;50.72;;;5.60;99.90;;;;;;4982421;28;20051;-61
2021/11/25 04:22:33;;;;;;;103.18;51.17;;;5.50;99.90;;;;;;5012253;28;20049;-61
2021/11/25 04:25:00;;;;;;;96.00;47.55;;;5.50;99.90;;;;;;5030334;28;20523;-62
2021/11/25 04:27:26;;;;;;;91.00;46.65;;;5.50;99.90;;;;;;4996192;28;20455;-62
2021/11/25 04:30:02;;;;;;;94.75;47.58;;;5.50;99.90;;;;;;5030120;28;20442;-62
2021/11/25 04:37:58;;;;;;;91.22;47.13;;;5.50;99.90;;;;;;5028667;28;20034;-62
2021/11/25 04:40:25;;;;;;;88.00;46.28;;;5.50;99.90;;;;;;5012014;28;20496;-61
2021/11/25 04:42:51;;;;;;;89.68;47.47;;;5.50;99.90;;;;;;5030317;28;20126;-61
2021/11/25 04:45:17;;;;;;;85.53;44.35;;;5.50;99.90;;;;;;5033767;28;20057;-62
2021/11/25 04:47:43;;;;;;;83.25;46.83;;;5.50;99.90;;;;;;5029886;28;20523;-62
2021/11/25 04:50:11;;;;;;;91.20;48.45;;;5.50;99.90;;;;;;5029799;28;20477;-61
2021/11/25 04:52:37;;;;;;;83.93;46.13;;;5.50;99.90;;;;;;5013664;28;20041;-62
2021/11/25 04:55:04;;;;;;;80.22;49.05;;;5.50;99.90;;;;;;4995673;28;20089;-62
2021/11/25 04:57:30;;;;;;;77.63;47.03;;;5.50;99.90;;;;;;5015337;28;20049;-62
2021/11/25 04:59:56;;;;;;;79.15;48.97;;;5.40;99.90;;;;;;5029835;28;20049;-62
2021/11/25 05:02:22;;;;;;;82.30;49.10;;;5.40;99.90;;;;;;5013245;28;20040;-62
2021/11/25 05:04:48;;;;;;;84.97;52.08;;;5.40;99.90;;;;;;4995544;28;20128;-62
2021/11/25 05:07:14;;;;;;;76.93;47.97;;;5.40;99.90;;;;;;5031236;28;20056;-62
2021/11/25 05:09:40;;;;;;;78.40;48.28;;;5.40;99.90;;;;;;5011114;28;20041;-62
2021/11/25 05:12:07;;;;;;;76.68;49.55;;;5.30;99.90;;;;;;5030335;28;20436;-57
2021/11/25 05:14:33;;;;;;;75.10;49.90;;;5.30;99.90;;;;;;4978723;28;20049;-62
2021/11/25 05:16:59;;;;;;;71.68;49.53;;;5.30;99.90;;;;;;5010875;28;20045;-58
2021/11/25 05:19:25;;;;;;;77.72;50.42;;;5.30;99.90;;;;;;5011460;28;20041;-62
2021/11/25 05:21:51;;;;;;;80.22;52.63;;;5.20;99.90;;;;;;5011693;28;20535;-62
2021/11/25 05:24:18;;;;;;;74.97;50.10;;;5.20;99.90;;;;;;5030240;28;20041;-57
2021/11/25 05:26:45;;;;;;;79.35;53.00;;;5.20;99.90;;;;;;4963416;28;20052;-57
2021/11/25 05:29:11;;;;;;;85.88;54.80;;;5.20;99.90;;;;;;5012490;28;20045;-57
2021/11/25 05:31:37;;;;;;;81.38;54.08;;;5.20;99.90;;;;;;5011221;28;20115;-56
2021/11/25 05:34:03;;;;;;;76.43;52.60;;;5.20;99.90;;;;;;5010442;28;20087;-58
2021/11/25 05:36:29;;;;;;;74.45;52.53;;;5.10;99.90;;;;;;5028599;28;20076;-58
2021/11/25 05:38:55;;;;;;;76.07;51.97;;;5.10;99.90;;;;;;5033506;28;20522;-57
2021/11/25 05:41:21;;;;;;;71.95;52.78;;;5.00;99.90;;;;;;5030810;28;20049;-58
2021/11/25 05:43:48;;;;;;;78.25;52.55;;;4.90;99.90;;;;;;5032131;28;20055;-62
2021/11/25 05:46:14;;;;;;;76.88;52.10;;;4.90;99.90;;;;;;4995424;28;20459;-62
2021/11/25 05:48:40;;;;;;;78.28;53.45;;;4.80;99.90;;;;;;5011784;28;20416;-62
2021/11/25 05:51:06;;;;;;;74.10;51.55;;;4.70;99.90;;;;;;5014706;28;20374;-62
2021/11/25 05:53:32;;;;;;;80.32;51.72;;;4.70;99.90;;;;;;5011517;28;20053;-62
2021/11/25 05:55:58;;;;;;;85.57;53.13;;;4.60;99.90;;;;;;5029623;28;20053;-62
2021/11/25 05:58:24;;;;;;;78.72;52.58;;;4.60;99.90;;;;;;4978342;28;20057;-62
2021/11/25 06:00:50;;;;;;;75.70;52.67;;;4.60;99.90;;;;;;5009880;28;20056;-62
2021/11/25 06:03:17;;;;;;;75.25;51.95;;;4.50;99.90;;;;;;5012299;28;20092;-62
2021/11/25 06:05:43;;;;;;;76.47;53.35;;;4.50;99.90;;;;;;5011852;28;20128;-62
2021/11/25 06:08:09;;;;;;;82.70;54.28;;;4.50;99.90;;;;;;4977845;28;20091;-62
2021/11/25 06:10:35;;;;;;;79.32;52.53;;;4.50;99.90;;;;;;5011707;28;20136;-61
2021/11/25 06:13:02;;;;;;;80.07;56.95;;;4.50;99.90;;;;;;5029564;28;20128;-62
2021/11/25 06:15:28;;;;;;;80.03;55.65;;;4.60;99.90;;;;;;5012303;28;20090;-57
2021/11/25 06:17:54;;;;;;;85.65;56.83;;;4.60;99.90;;;;;;5011177;28;20085;-56
2021/11/25 06:20:21;;;;;;;78.13;54.20;;;4.60;99.90;;;;;;5010587;28;20083;-57
2021/11/25 06:22:52;;;;;;;79.00;53.38;;;4.60;99.90;;;;;;4995386;28;20048;-57
2021/11/25 06:25:21;;;;;;;77.60;52.97;;;4.70;99.90;;;;;;5028762;28;20103;-61
2021/11/25 06:27:48;;;;;;;77.97;52.95;;;4.70;99.90;;;;;;5029064;28;20088;-62
2021/11/25 06:30:15;;;;;;;80.15;54.45;;;4.70;99.90;;;;;;5011381;28;20041;-62
2021/11/25 06:32:44;;;;;;;79.18;54.17;;;4.70;99.90;;;;;;5028671;28;20191;-63
2021/11/25 06:35:12;;;;;;;80.78;55.03;;;4.80;99.90;;;;;;5014833;28;20042;-58
2021/11/25 06:37:45;;;;;;;76.00;51.53;;;5.00;99.90;;;;;;5029756;28;20103;-61
2021/11/25 06:40:16;;;;;;;70.72;50.55;;;5.00;99.90;;;;;;5011336;28;20461;-52
2021/11/25 06:42:43;;;;;;;74.78;51.22;;;5.00;99.90;;;;;;5010682;28;20053;-52
2021/11/25 06:45:10;;;;;;;70.53;54.22;;;5.00;99.90;;;;;;5009567;28;20569;-57
2021/11/25 06:47:36;;;;;;;72.07;49.05;;;5.00;99.90;;;;;;5037163;28;20053;-57
2021/11/25 06:50:08;;;;;;;69.60;50.05;;;5.00;99.90;;;;;;5000702;28;20084;-53
2021/11/25 06:52:35;;;;;;;79.50;53.67;;;4.90;99.90;;;;;;5029241;28;20064;-54
2021/11/25 06:55:02;;;;;;;72.28;50.92;;;5.00;99.90;;;;;;4994529;28;20072;-51
2021/11/25 06:57:28;;;;;;;74.28;52.05;;;4.90;99.90;;;;;;5029150;28;20607;-48
2021/11/25 06:59:54;;;;;;;67.90;49.03;;;5.00;99.90;;;;;;5011997;28;20053;-49
2021/11/25 07:02:20;;;;;;;68.10;49.70;;;4.90;99.90;;;;;;5010813;28;20103;-48
2021/11/25 07:04:47;;;;;;;64.53;48.22;;;5.00;99.90;;;;;;5014925;28;20346;-58
2021/11/25 07:07:13;;;;;;;69.10;49.78;;;5.00;99.90;;;;;;4998304;28;20057;-52
2021/11/25 07:09:39;;;;;;;68.93;50.92;;;5.00;99.90;;;;;;5014873;28;20049;-51
2021/11/25 07:12:05;;;;;;;72.38;51.55;;;5.00;99.90;;;;;;5015079;28;20042;-50
2021/11/25 07:14:32;;;;;;;74.72;52.60;;;5.00;99.90;;;;;;4998722;28;20057;-53
2021/11/25 07:16:58;;;;;;;69.10;50.42;;;5.00;99.90;;;;;;5022094;28;20468;-52
2021/11/25 07:19:24;;;;;;;70.75;50.88;;;5.00;99.90;;;;;;5030601;28;20051;-49
2021/11/25 07:21:50;;;;;;;66.82;49.85;;;5.00;99.90;;;;;;5031063;28;20079;-52
2021/11/25 07:24:16;;;;;;;67.20;50.60;;;5.00;99.90;;;;;;5030531;28;20041;-52
2021/11/25 07:26:42;;;;;;;72.93;52.42;;;5.00;99.90;;;;;;5030993;28;20152;-51
2021/11/25 07:29:09;;;;;;;72.72;51.65;;;5.00;99.90;;;;;;5031457;28;20045;-58
2021/11/25 07:31:39;;;;;;;69.65;50.10;;;5.10;99.90;;;;;;5032430;28;20405;-48
2021/11/25 07:34:05;;;;;;;70.45;51.63;;;5.10;99.90;;;;;;5029296;28;20395;-48
2021/11/25 07:36:31;;;;;;;69.20;50.17;;;5.00;99.90;;;;;;5030485;28;20065;-49
2021/11/25 07:38:57;;;;;;;72.35;51.40;;;5.10;99.90;;;;;;4997590;28;20058;-50
2021/11/25 07:41:23;;;;;;;71.05;49.60;;;5.10;99.90;;;;;;5031904;28;20049;-51
2021/11/25 07:43:49;;;;;;;72.82;52.70;;;5.10;99.90;;;;;;5007363;28;20064;-52
2021/11/25 07:46:15;;;;;;;73.70;50.40;;;5.10;99.90;;;;;;5017882;28;20056;-53
2021/11/25 07:48:41;;;;;;;75.28;53.80;;;5.10;99.90;;;;;;4999987;28;20038;-54
2021/11/25 07:51:08;;;;;;;72.53;53.30;;;5.10;99.90;;;;;;5022326;28;20049;-52
2021/11/25 07:53:35;;;;;;;78.85;54.83;;;5.10;99.90;;;;;;5010289;28;20452;-50
2021/11/25 07:56:01;;;;;;;73.88;51.47;;;5.20;99.90;;;;;;5020762;28;20049;-57
2021/11/25 07:58:28;;;;;;;78.90;54.72;;;5.20;99.90;;;;;;5013491;28;20057;-58
2021/11/25 08:00:56;;;;;;;74.43;51.47;;;5.20;99.90;;;;;;5013121;28;20063;-58
2021/11/25 08:03:23;;;;;;;77.90;52.40;;;5.10;99.90;;;;;;5017854;28;20054;-57
2021/11/25 08:05:50;;;;;;;82.00;54.08;;;5.20;99.90;;;;;;4977431;28;20054;-51
2021/11/25 08:08:16;;;;;;;80.03;54.40;;;5.10;99.90;;;;;;5025538;28;20128;-57
2021/11/25 08:10:43;;;;;;;78.55;55.50;;;5.10;99.90;;;;;;5029526;28;20053;-60
2021/11/25 08:13:09;;;;;;;91.80;56.55;;;5.10;99.90;;;;;;5016969;28;20053;-52
2021/11/25 08:15:35;;;;;;;85.53;57.28;;;5.10;99.90;;;;;;4999099;28;20049;-53
2021/11/25 08:18:02;;;;;;;82.80;54.83;;;5.10;99.90;;;;;;5023235;28;20780;-51
2021/11/25 08:20:28;;;;;;;86.07;57.45;;;5.20;99.90;;;;;;5046099;28;20059;-58
2021/11/25 08:22:55;;;;;;;87.00;57.83;;;5.20;99.90;;;;;;5016527;28;20049;-57
2021/11/25 08:25:23;;;;;;;95.60;60.72;;;5.10;99.90;;;;;;5005173;28;20401;-47
2021/11/25 08:27:54;;;;;;;88.03;56.58;;;5.20;99.90;;;;;;5010950;28;20049;-49
2021/11/25 08:30:21;;;;;;;89.73;56.37;;;5.20;99.90;;;;;;4995112;28;21164;-55
2021/11/25 08:32:48;;;;;;;97.20;60.42;;;5.20;99.90;;;;;;5030762;28;20045;-47
2021/11/25 08:35:15;;;;;;;90.47;58.53;;;5.30;99.90;;;;;;5030414;28;20640;-54
2021/11/25 08:37:42;;;;;;;91.53;57.78;;;5.30;99.90;;;;;;5030320;28;20191;-57
2021/11/25 08:40:11;;;;;;;97.65;62.75;;;5.20;99.90;;;;;;5013281;28;20050;-57
2021/11/25 08:42:38;;;;;;;97.20;60.85;;;5.30;99.90;;;;;;4995646;28;21100;-55
2021/11/25 08:45:06;;;;;;;100.80;62.05;;;5.30;99.90;;;;;;5012610;28;20084;-56
2021/11/25 08:47:32;;;;;;;95.35;59.05;;;5.30;99.90;;;;;;5029370;28;20511;-56
2021/11/25 08:49:58;;;;;;;94.70;60.00;;;5.30;99.90;;;;;;5029980;28;20045;-51
2021/11/25 08:52:24;;;;;;;99.95;60.67;;;5.40;99.90;;;;;;5030435;28;20048;-56
2021/11/25 08:54:50;;;;;;;99.40;62.22;;;5.40;99.90;;;;;;4995987;28;20045;-56
2021/11/25 08:57:17;;;;;;;98.45;58.97;;;5.40;99.90;;;;;;5012191;28;20068;-57
2021/11/25 08:59:43;;;;;;;97.93;59.40;;;5.40;99.90;;;;;;4995587;28;20099;-56
2021/11/25 09:02:11;;;;;;;99.35;61.33;;;5.40;99.90;;;;;;5012068;28;20049;-58
2021/11/25 09:04:37;;;;;;;103.82;60.70;;;5.40;99.90;;;;;;4996079;28;20404;-57
2021/11/25 09:07:04;;;;;;;105.80;62.53;;;5.40;99.90;;;;;;5011906;28;20079;-57
2021/11/25 09:09:30;;;;;;;110.07;64.22;;;5.40;99.90;;;;;;5008355;28;20127;-51
2021/11/25 09:11:56;;;;;;;108.72;68.28;;;5.40;99.90;;;;;;4979449;28;20057;-51
2021/11/25 09:14:22;;;;;;;108.28;65.35;;;5.50;99.90;;;;;;5012103;28;20775;-51
2021/11/25 09:16:49;;;;;;;114.85;68.93;;;5.50;99.90;;;;;;5012028;28;20049;-51
2021/11/25 09:19:16;;;;;;;108.40;66.65;;;5.60;99.90;;;;;;4995732;28;20064;-51
2021/11/25 09:21:43;;;;;;;116.40;64.93;;;5.60;99.90;;;;;;5012593;28;20496;-49
2021/11/25 09:24:09;;;;;;;188.57;119.82;;;5.70;99.90;;;;;;5029892;28;20172;-45
2021/11/25 09:26:37;;;;;;;110.85;63.75;;;5.80;99.90;;;;;;5030240;28;20475;-48
2021/11/25 09:29:04;;;;;;;118.30;66.65;;;5.90;99.90;;;;;;5012116;28;20050;-54
2021/11/25 09:31:32;;;;;;;117.88;67.25;;;5.90;99.90;;;;;;5029611;28;20107;-56
2021/11/25 09:34:00;;;;;;;109.50;63.60;;;6.00;99.90;;;;;;5029068;28;20137;-46
2021/11/25 09:36:28;;;;;;;109.93;65.68;;;5.90;99.90;;;;;;5012019;28;20064;-50
2021/11/25 09:38:55;;;;;;;103.63;62.38;;;6.00;99.90;;;;;;5029450;28;20053;-52
2021/11/25 09:41:22;;;;;;;109.75;60.60;;;6.00;99.90;;;;;;4995406;28;20049;-53
2021/11/25 09:43:48;;;;;;;101.03;61.17;;;6.00;99.90;;;;;;5023261;28;20050;-50
2021/11/25 09:46:15;;;;;;;104.97;61.55;;;6.10;99.90;;;;;;5024980;28;20561;-57
2021/11/25 09:48:42;;;;;;;100.13;61.38;;;6.10;99.90;;;;;;5010817;28;20041;-51
2021/11/25 09:51:09;;;;;;;104.80;59.00;;;6.00;99.90;;;;;;5011608;28;20482;-57
2021/11/25 09:53:37;;;;;;;101.13;60.70;;;6.00;99.90;;;;;;5029176;28;20504;-47
2021/11/25 09:56:06;;;;;;;95.43;61.20;;;6.00;99.90;;;;;;5029101;28;20496;-58
2021/11/25 09:58:35;;;;;;;110.50;62.80;;;6.00;99.90;;;;;;4995633;28;20377;-58
2021/11/25 10:01:09;;;;;;;107.90;62.35;;;6.10;99.90;;;;;;5009973;28;20123;-52
2021/11/25 10:03:37;;;;;;;106.90;61.50;;;6.00;99.90;;;;;;5028510;28;20053;-53
2021/11/25 10:06:03;;;;;;;108.07;61.97;;;6.10;99.90;;;;;;5026631;28;20145;-58
2021/11/25 10:08:34;;;;;;;106.30;61.40;;;6.20;99.90;;;;;;5027444;28;20057;-48
2021/11/25 10:11:02;;;;;;;102.25;60.50;;;6.30;99.90;;;;;;5015937;28;20098;-51
2021/11/25 10:13:41;;;;;;;93.57;57.47;;;6.60;99.90;;;;;;5017185;28;20068;-53
2021/11/25 10:16:13;;;;;;;86.85;56.28;;;6.80;99.90;;;;;;4996566;28;20061;-55
2021/11/25 10:18:41;;;;;;;92.03;56.92;;;7.20;99.90;;;;;;5028457;28;20562;-54
2021/11/25 10:21:18;;;;;;;86.03;53.53;;;7.60;99.90;;;;;;5018811;28;20135;-55
2021/11/25 10:23:48;;;;;;;70.05;49.22;;;7.90;99.90;;;;;;5016493;28;20089;-58
2021/11/25 10:26:21;;;;;;;69.38;47.78;;;8.20;99.90;;;;;;5027771;28;20619;-58
2021/11/25 10:28:56;;;;;;;67.63;46.55;;;8.50;99.90;;;;;;5029182;28;20049;-58
2021/11/25 10:31:32;;;;;;;61.20;47.00;;;8.80;99.90;;;;;;4995451;28;20629;-56
2021/11/25 10:34:11;;;;;;;67.15;46.70;;;9.00;99.90;;;;;;5006319;28;20401;-56
2021/11/25 10:42:04;;;;;;;65.10;47.00;;;8.30;99.90;;;;;;5029809;28;20416;-53
2021/11/25 10:44:34;;;;;;;67.63;44.70;;;8.10;99.90;;;;;;5018775;28;20421;-58
2021/11/25 10:47:07;;;;;;;70.28;47.00;;;7.90;99.90;;;;;;5012602;28;20057;-52
2021/11/25 10:49:50;;;;;;;72.50;48.58;;;7.70;99.90;;;;;;4995485;28;20060;-56
2021/11/25 10:52:35;;;;;;;69.60;47.08;;;7.60;99.90;;;;;;5009648;28;20650;-53
2021/11/25 10:55:06;;;;;;;72.30;47.88;;;7.50;99.90;;;;;;5033115;28;20464;-54
2021/11/25 10:57:53;;;;;;;79.38;52.03;;;7.50;99.90;;;;;;5009876;28;20058;-53
2021/11/25 11:00:24;;;;;;;80.85;50.45;;;7.40;99.90;;;;;;5012290;28;20049;-55
2021/11/25 11:03:07;;;;;;;73.00;48.20;;;7.40;99.90;;;;;;5002694;28;20346;-58
2021/11/25 11:05:48;;;;;;;75.00;48.78;;;7.50;99.90;;;;;;4992208;28;20128;-58
2021/11/25 11:08:16;;;;;;;75.43;48.63;;;7.60;99.90;;;;;;5040461;28;20041;-58
2021/11/25 11:10:58;;;;;;;79.18;48.38;;;7.70;99.90;;;;;;4980328;28;20053;-58
2021/11/25 11:21:26;;;;;;;69.00;43.70;;;7.90;99.90;;;;;;5025621;28;20149;-52
2021/11/25 11:23:54;;;;;;;58.13;40.15;;;8.00;99.90;;;;;;5021316;28;20087;-55
2021/11/25 11:26:20;;;;;;;62.97;39.10;;;8.10;99.90;;;;;;5034228;28;20041;-54
2021/11/25 11:28:47;;;;;;;56.80;37.63;;;8.00;99.90;;;;;;5014577;28;20049;-55
2021/11/25 11:31:13;;;;;;;59.08;39.50;;;8.10;99.90;;;;;;5032013;28;20057;-55
2021/11/25 11:33:39;;;;;;;60.55;37.92;;;8.00;99.90;;;;;;5031525;28;20110;-58
2021/11/25 11:36:06;;;;;;;57.65;38.05;;;8.00;99.90;;;;;;5014461;28;20496;-59
2021/11/25 11:38:33;;;;;;;57.25;36.85;;;8.00;99.90;;;;;;5031483;28;20072;-58
2021/11/25 11:40:59;;;;;;;56.33;38.60;;;8.00;99.90;;;;;;5015306;28;20393;-55
2021/11/25 11:43:26;;;;;;;58.20;37.97;;;8.10;99.90;;;;;;5010206;28;20509;-58
2021/11/25 11:45:53;;;;;;;53.42;34.30;;;8.10;99.90;;;;;;4993838;28;20049;-54
2021/11/25 11:48:20;;;;;;;50.78;33.45;;;8.10;99.90;;;;;;4974794;28;20101;-58
2021/11/25 11:50:49;;;;;;;48.83;32.15;;;8.10;99.90;;;;;;4964813;28;20108;-58
2021/11/25 11:53:18;;;;;;;50.92;31.30;;;8.20;99.90;;;;;;5009321;28;20112;-58
2021/11/25 11:55:47;;;;;;;40.20;28.35;;;8.30;99.90;;;;;;5009022;28;20694;-58
2021/11/25 11:58:30;;;;;;;40.17;27.17;;;8.60;99.90;;;;;;4992021;28;20043;-58
2021/11/25 12:01:07;;;;;;;43.83;28.05;;;8.80;99.90;;;;;;4989985;28;20047;-58
2021/11/25 12:03:40;;;;;;;40.67;26.67;;;8.70;99.90;;;;;;4992080;28;20057;-58
2021/11/25 12:06:08;;;;;;;34.70;22.83;;;8.80;99.90;;;;;;5004627;28;20072;-58
2021/11/25 12:08:35;;;;;;;33.75;21.38;;;8.80;99.90;;;;;;5026756;28;20058;-58
2021/11/25 12:11:01;;;;;;;29.33;19.75;;;8.90;99.90;;;;;;5004695;28;20530;-59
2021/11/25 12:13:54;;;;;;;30.48;18.23;;;8.90;99.90;;;;;;5019467;28;20057;-55
2021/11/25 12:16:20;;;;;;;22.85;15.15;;;9.00;99.90;;;;;;5010734;28;20386;-54
2021/11/25 12:18:53;;;;;;;26.13;14.02;;;8.90;99.90;;;;;;5009275;28;20053;-56
2021/11/25 12:21:32;;;;;;;20.52;11.48;;;8.90;99.90;;;;;;5010055;28;20060;-52
2021/11/25 12:24:18;;;;;;;21.15;9.48;;;9.00;99.90;;;;;;4993615;28;20528;-58
2021/11/25 12:27:16;;;;;;;22.83;8.00;;;9.00;99.90;;;;;;4978103;28;20042;-57
2021/11/25 12:29:43;;;;;;;15.68;6.68;;;9.10;99.90;;;;;;4995734;28;20125;-56
2021/11/25 12:35:14;;;;;;;12.43;4.60;;;9.40;99.90;;;;;;5010811;28;20081;-57
2021/11/25 12:37:49;;;;;;;49.15;32.92;;;10.70;99.90;;;;;;5007271;28;20053;-56
2021/11/25 12:40:22;;;;;;;16.17;4.15;;;11.90;99.90;;;;;;5008919;28;20054;-56
2021/11/25 12:42:57;;;;;;;11.48;3.20;;;12.50;99.90;;;;;;5018557;28;20192;-56
2021/11/25 12:45:24;;;;;;;9.57;3.15;;;12.20;99.90;;;;;;5030560;28;20045;-57
2021/11/25 12:48:08;;;;;;;11.77;2.90;;;11.80;99.90;;;;;;5022954;28;20046;-57
2021/11/25 12:50:51;;;;;;;12.52;3.15;;;12.50;99.90;;;;;;4996412;28;20042;-56
2021/11/25 12:53:51;;;;;;;9.35;2.42;;;13.10;99.90;;;;;;5030407;28;20056;-57
2021/11/25 12:56:29;;;;;;;7.07;2.00;;;13.70;99.90;;;;;;4986040;28;20063;-57
2021/11/25 12:59:10;;;;;;;12.80;2.38;;;13.80;99.90;;;;;;5011921;28;20215;-57
2021/11/25 13:01:38;;;;;;;7.55;2.13;;;14.20;99.90;;;;;;5014188;28;20057;-57
2021/11/25 13:04:05;;;;;;;8.05;1.50;;;14.40;99.90;;;;;;5018097;28;20049;-57